sensor_id;sensor_type;location;lat;lon;timestamp;P1;durP1;ratioP1;P2;durP2;ratioP2
5569;SDS011;2808;51.240;6.794;2023-03-14T00:00:04;6.77;;;1.60;;
5569;SDS011;2808;51.240;6.794;2023-03-14T00:02:39;6.23;;;1.60;;
5569;SDS011;2808;51.240;6.794;2023-03-14T00:05:07;5.00;;;1.70;;
5569;SDS011;2808;51.240;6.794;2023-03-14T00:07:36;6.97;;;1.90;;
5569;SDS011;2808;51.240;6.794;2023-03-14T00:10:06;8.60;;;1.83;;
5569;SDS011;2808;51.240;6.794;2023-03-14T00:12:35;6.60;;;1.70;;
5569;SDS011;2808;51.240;6.794;2023-03-14T00:15:03;7.60;;;1.83;;
5569;SDS011;2808;51.240;6.794;2023-03-14T00:17:34;6.37;;;1.60;;
5569;SDS011;2808;51.240;6.794;2023-03-14T00:20:04;7.00;;;1.80;;
5569;SDS011;2808;51.240;6.794;2023-03-14T00:22:36;6.97;;;2.00;;
5569;SDS011;2808;51.240;6.794;2023-03-14T00:25:04;10.83;;;2.37;;
5569;SDS011;2808;51.240;6.794;2023-03-14T00:27:33;15.90;;;2.43;;
5569;SDS011;2808;51.240;6.794;2023-03-14T00:30:01;7.73;;;2.30;;
5569;SDS011;2808;51.240;6.794;2023-03-14T00:32:29;8.37;;;2.07;;
5569;SDS011;2808;51.240;6.794;2023-03-14T00:34:57;15.50;;;2.30;;
5569;SDS011;2808;51.240;6.794;2023-03-14T00:37:27;9.47;;;2.37;;
5569;SDS011;2808;51.240;6.794;2023-03-14T00:39:54;9.43;;;2.00;;
5569;SDS011;2808;51.240;6.794;2023-03-14T00:42:23;5.60;;;1.30;;
5569;SDS011;2808;51.240;6.794;2023-03-14T00:44:51;5.57;;;1.70;;
5569;SDS011;2808;51.240;6.794;2023-03-14T00:47:18;8.40;;;1.70;;
5569;SDS011;2808;51.240;6.794;2023-03-14T00:49:45;6.33;;;1.40;;
5569;SDS011;2808;51.240;6.794;2023-03-14T00:52:13;6.90;;;1.67;;
5569;SDS011;2808;51.240;6.794;2023-03-14T00:54:44;9.77;;;2.20;;
5569;SDS011;2808;51.240;6.794;2023-03-14T00:57:11;8.97;;;1.67;;
5569;SDS011;2808;51.240;6.794;2023-03-14T00:59:39;8.70;;;1.70;;
5569;SDS011;2808;51.240;6.794;2023-03-14T01:02:06;12.40;;;2.27;;
5569;SDS011;2808;51.240;6.794;2023-03-14T01:04:34;9.60;;;1.77;;
5569;SDS011;2808;51.240;6.794;2023-03-14T01:07:02;7.73;;;1.60;;
5569;SDS011;2808;51.240;6.794;2023-03-14T01:09:30;4.20;;;1.40;;
5569;SDS011;2808;51.240;6.794;2023-03-14T01:11:59;9.27;;;1.40;;
5569;SDS011;2808;51.240;6.794;2023-03-14T01:14:26;12.33;;;2.20;;
5569;SDS011;2808;51.240;6.794;2023-03-14T01:16:53;6.70;;;1.60;;
5569;SDS011;2808;51.240;6.794;2023-03-14T01:19:25;9.90;;;2.20;;
5569;SDS011;2808;51.240;6.794;2023-03-14T01:21:53;6.33;;;1.33;;
5569;SDS011;2808;51.240;6.794;2023-03-14T01:24:21;10.57;;;1.43;;
5569;SDS011;2808;51.240;6.794;2023-03-14T01:26:48;5.40;;;1.47;;
5569;SDS011;2808;51.240;6.794;2023-03-14T01:29:17;6.33;;;1.20;;
5569;SDS011;2808;51.240;6.794;2023-03-14T01:31:45;5.67;;;1.20;;
5569;SDS011;2808;51.240;6.794;2023-03-14T01:34:15;6.67;;;1.37;;
5569;SDS011;2808;51.240;6.794;2023-03-14T01:36:46;11.00;;;1.17;;
5569;SDS011;2808;51.240;6.794;2023-03-14T01:39:14;7.67;;;1.60;;
5569;SDS011;2808;51.240;6.794;2023-03-14T01:41:41;7.10;;;1.53;;
5569;SDS011;2808;51.240;6.794;2023-03-14T01:44:09;5.47;;;1.50;;
5569;SDS011;2808;51.240;6.794;2023-03-14T01:46:39;5.13;;;1.33;;
5569;SDS011;2808;51.240;6.794;2023-03-14T01:49:12;9.30;;;1.30;;
5569;SDS011;2808;51.240;6.794;2023-03-14T01:51:50;12.87;;;1.87;;
5569;SDS011;2808;51.240;6.794;2023-03-14T01:54:23;9.47;;;1.93;;
5569;SDS011;2808;51.240;6.794;2023-03-14T01:56:55;12.87;;;1.73;;
5569;SDS011;2808;51.240;6.794;2023-03-14T01:59:27;13.03;;;1.90;;
5569;SDS011;2808;51.240;6.794;2023-03-14T02:01:59;6.00;;;1.73;;
5569;SDS011;2808;51.240;6.794;2023-03-14T02:04:28;8.43;;;1.67;;
5569;SDS011;2808;51.240;6.794;2023-03-14T02:06:59;7.20;;;1.87;;
5569;SDS011;2808;51.240;6.794;2023-03-14T02:09:31;9.80;;;1.80;;
5569;SDS011;2808;51.240;6.794;2023-03-14T02:11:58;10.03;;;2.40;;
5569;SDS011;2808;51.240;6.794;2023-03-14T02:14:28;7.50;;;1.63;;
5569;SDS011;2808;51.240;6.794;2023-03-14T02:17:00;16.73;;;2.03;;
5569;SDS011;2808;51.240;6.794;2023-03-14T02:19:35;8.47;;;2.03;;
5569;SDS011;2808;51.240;6.794;2023-03-14T02:22:14;6.87;;;1.53;;
5569;SDS011;2808;51.240;6.794;2023-03-14T02:24:43;16.83;;;2.03;;
5569;SDS011;2808;51.240;6.794;2023-03-14T02:27:18;4.93;;;1.50;;
5569;SDS011;2808;51.240;6.794;2023-03-14T02:29:49;9.87;;;1.80;;
5569;SDS011;2808;51.240;6.794;2023-03-14T02:32:18;10.47;;;2.03;;
5569;SDS011;2808;51.240;6.794;2023-03-14T02:34:49;7.83;;;1.77;;
5569;SDS011;2808;51.240;6.794;2023-03-14T02:37:20;10.50;;;1.70;;
5569;SDS011;2808;51.240;6.794;2023-03-14T02:39:51;10.90;;;1.90;;
5569;SDS011;2808;51.240;6.794;2023-03-14T02:42:21;7.73;;;1.60;;
5569;SDS011;2808;51.240;6.794;2023-03-14T02:44:49;4.10;;;1.40;;
5569;SDS011;2808;51.240;6.794;2023-03-14T02:47:20;5.97;;;1.60;;
5569;SDS011;2808;51.240;6.794;2023-03-14T02:49:53;4.03;;;1.33;;
5569;SDS011;2808;51.240;6.794;2023-03-14T02:52:26;9.30;;;2.07;;
5569;SDS011;2808;51.240;6.794;2023-03-14T02:54:53;6.30;;;1.60;;
5569;SDS011;2808;51.240;6.794;2023-03-14T02:57:22;6.40;;;1.70;;
5569;SDS011;2808;51.240;6.794;2023-03-14T02:59:49;5.70;;;1.70;;
5569;SDS011;2808;51.240;6.794;2023-03-14T03:02:17;6.90;;;1.80;;
5569;SDS011;2808;51.240;6.794;2023-03-14T03:04:44;7.87;;;1.80;;
5569;SDS011;2808;51.240;6.794;2023-03-14T03:07:12;7.63;;;1.77;;
5569;SDS011;2808;51.240;6.794;2023-03-14T03:09:39;8.07;;;1.90;;
5569;SDS011;2808;51.240;6.794;2023-03-14T03:12:07;6.93;;;1.70;;
5569;SDS011;2808;51.240;6.794;2023-03-14T03:14:36;11.13;;;1.93;;
5569;SDS011;2808;51.240;6.794;2023-03-14T03:17:04;7.20;;;2.20;;
5569;SDS011;2808;51.240;6.794;2023-03-14T03:19:32;10.30;;;1.97;;
5569;SDS011;2808;51.240;6.794;2023-03-14T03:22:00;14.37;;;2.10;;
5569;SDS011;2808;51.240;6.794;2023-03-14T03:24:28;7.00;;;1.53;;
5569;SDS011;2808;51.240;6.794;2023-03-14T03:26:55;14.40;;;2.00;;
5569;SDS011;2808;51.240;6.794;2023-03-14T03:29:23;12.00;;;2.30;;
5569;SDS011;2808;51.240;6.794;2023-03-14T03:31:52;7.80;;;1.70;;
5569;SDS011;2808;51.240;6.794;2023-03-14T03:34:19;8.83;;;1.70;;
5569;SDS011;2808;51.240;6.794;2023-03-14T03:36:47;8.33;;;1.60;;
5569;SDS011;2808;51.240;6.794;2023-03-14T03:39:14;8.03;;;1.90;;
5569;SDS011;2808;51.240;6.794;2023-03-14T03:41:42;11.30;;;2.03;;
5569;SDS011;2808;51.240;6.794;2023-03-14T03:44:09;7.37;;;1.80;;
5569;SDS011;2808;51.240;6.794;2023-03-14T03:46:37;8.27;;;1.80;;
5569;SDS011;2808;51.240;6.794;2023-03-14T03:49:06;8.10;;;1.70;;
5569;SDS011;2808;51.240;6.794;2023-03-14T03:51:34;8.13;;;1.40;;
5569;SDS011;2808;51.240;6.794;2023-03-14T03:54:02;4.73;;;1.47;;
5569;SDS011;2808;51.240;6.794;2023-03-14T03:56:29;15.67;;;2.77;;
5569;SDS011;2808;51.240;6.794;2023-03-14T03:58:57;9.00;;;1.60;;
5569;SDS011;2808;51.240;6.794;2023-03-14T04:01:24;10.10;;;1.73;;
5569;SDS011;2808;51.240;6.794;2023-03-14T04:03:52;10.27;;;1.50;;
5569;SDS011;2808;51.240;6.794;2023-03-14T04:06:21;9.40;;;1.83;;
5569;SDS011;2808;51.240;6.794;2023-03-14T04:08:48;16.63;;;2.07;;
5569;SDS011;2808;51.240;6.794;2023-03-14T04:11:16;7.70;;;1.60;;
5569;SDS011;2808;51.240;6.794;2023-03-14T04:13:43;11.60;;;2.10;;
5569;SDS011;2808;51.240;6.794;2023-03-14T04:16:12;14.10;;;2.00;;
5569;SDS011;2808;51.240;6.794;2023-03-14T04:18:42;11.30;;;1.77;;
5569;SDS011;2808;51.240;6.794;2023-03-14T04:21:10;6.57;;;1.90;;
5569;SDS011;2808;51.240;6.794;2023-03-14T04:23:40;13.57;;;2.00;;
5569;SDS011;2808;51.240;6.794;2023-03-14T04:26:07;15.30;;;2.77;;
5569;SDS011;2808;51.240;6.794;2023-03-14T04:28:35;11.93;;;2.07;;
5569;SDS011;2808;51.240;6.794;2023-03-14T04:31:06;11.57;;;2.07;;
5569;SDS011;2808;51.240;6.794;2023-03-14T04:33:34;8.40;;;2.00;;
5569;SDS011;2808;51.240;6.794;2023-03-14T04:36:02;10.87;;;3.30;;
5569;SDS011;2808;51.240;6.794;2023-03-14T04:38:31;15.77;;;2.90;;
5569;SDS011;2808;51.240;6.794;2023-03-14T04:41:00;7.70;;;2.10;;
5569;SDS011;2808;51.240;6.794;2023-03-14T04:43:28;9.20;;;2.20;;
5569;SDS011;2808;51.240;6.794;2023-03-14T04:45:56;7.13;;;1.70;;
5569;SDS011;2808;51.240;6.794;2023-03-14T04:48:24;9.03;;;2.20;;
5569;SDS011;2808;51.240;6.794;2023-03-14T04:50:53;11.50;;;2.40;;
5569;SDS011;2808;51.240;6.794;2023-03-14T04:53:21;9.07;;;2.53;;
5569;SDS011;2808;51.240;6.794;2023-03-14T04:55:48;10.50;;;2.10;;
5569;SDS011;2808;51.240;6.794;2023-03-14T04:58:18;12.00;;;2.50;;
5569;SDS011;2808;51.240;6.794;2023-03-14T05:00:46;12.20;;;2.53;;
5569;SDS011;2808;51.240;6.794;2023-03-14T05:03:14;6.90;;;2.03;;
5569;SDS011;2808;51.240;6.794;2023-03-14T05:05:42;9.93;;;2.00;;
5569;SDS011;2808;51.240;6.794;2023-03-14T05:08:10;15.87;;;2.23;;
5569;SDS011;2808;51.240;6.794;2023-03-14T05:10:38;9.57;;;2.10;;
5569;SDS011;2808;51.240;6.794;2023-03-14T05:13:05;10.17;;;3.60;;
5569;SDS011;2808;51.240;6.794;2023-03-14T05:15:37;10.53;;;4.17;;
5569;SDS011;2808;51.240;6.794;2023-03-14T05:18:04;12.13;;;3.70;;
5569;SDS011;2808;51.240;6.794;2023-03-14T05:20:32;12.10;;;2.40;;
5569;SDS011;2808;51.240;6.794;2023-03-14T05:23:00;11.27;;;1.93;;
5569;SDS011;2808;51.240;6.794;2023-03-14T05:25:28;9.70;;;2.03;;
5569;SDS011;2808;51.240;6.794;2023-03-14T05:27:55;10.00;;;2.20;;
5569;SDS011;2808;51.240;6.794;2023-03-14T05:30:23;6.47;;;1.83;;
5569;SDS011;2808;51.240;6.794;2023-03-14T05:32:52;4.10;;;1.40;;
5569;SDS011;2808;51.240;6.794;2023-03-14T05:35:19;5.77;;;1.67;;
5569;SDS011;2808;51.240;6.794;2023-03-14T05:37:47;5.07;;;1.57;;
5569;SDS011;2808;51.240;6.794;2023-03-14T05:40:14;9.53;;;1.30;;
5569;SDS011;2808;51.240;6.794;2023-03-14T05:42:42;2.50;;;1.00;;
5569;SDS011;2808;51.240;6.794;2023-03-14T05:45:10;3.03;;;1.20;;
5569;SDS011;2808;51.240;6.794;2023-03-14T05:47:37;2.40;;;0.90;;
5569;SDS011;2808;51.240;6.794;2023-03-14T05:50:07;4.33;;;1.07;;
5569;SDS011;2808;51.240;6.794;2023-03-14T05:52:35;5.20;;;0.90;;
5569;SDS011;2808;51.240;6.794;2023-03-14T05:55:03;2.70;;;0.80;;
5569;SDS011;2808;51.240;6.794;2023-03-14T05:57:31;2.83;;;0.90;;
5569;SDS011;2808;51.240;6.794;2023-03-14T05:59:58;3.37;;;0.93;;
5569;SDS011;2808;51.240;6.794;2023-03-14T06:02:26;2.27;;;0.90;;
5569;SDS011;2808;51.240;6.794;2023-03-14T06:04:55;3.40;;;1.10;;
5569;SDS011;2808;51.240;6.794;2023-03-14T06:07:23;2.97;;;1.00;;
5569;SDS011;2808;51.240;6.794;2023-03-14T06:09:51;2.97;;;0.90;;
5569;SDS011;2808;51.240;6.794;2023-03-14T06:12:18;2.57;;;0.80;;
5569;SDS011;2808;51.240;6.794;2023-03-14T06:14:46;2.27;;;0.80;;
5569;SDS011;2808;51.240;6.794;2023-03-14T06:17:13;1.90;;;0.70;;
5569;SDS011;2808;51.240;6.794;2023-03-14T06:19:41;3.20;;;0.90;;
5569;SDS011;2808;51.240;6.794;2023-03-14T06:22:09;2.23;;;0.80;;
5569;SDS011;2808;51.240;6.794;2023-03-14T06:24:38;5.00;;;0.80;;
5569;SDS011;2808;51.240;6.794;2023-03-14T06:27:05;6.20;;;0.80;;
5569;SDS011;2808;51.240;6.794;2023-03-14T06:29:33;1.90;;;0.70;;
5569;SDS011;2808;51.240;6.794;2023-03-14T06:32:00;1.90;;;0.80;;
5569;SDS011;2808;51.240;6.794;2023-03-14T06:34:28;2.00;;;0.80;;
5569;SDS011;2808;51.240;6.794;2023-03-14T06:36:55;3.13;;;0.80;;
5569;SDS011;2808;51.240;6.794;2023-03-14T06:39:23;2.20;;;0.70;;
5569;SDS011;2808;51.240;6.794;2023-03-14T06:41:51;4.57;;;0.83;;
5569;SDS011;2808;51.240;6.794;2023-03-14T06:44:19;2.53;;;0.80;;
5569;SDS011;2808;51.240;6.794;2023-03-14T06:46:46;2.93;;;0.80;;
5569;SDS011;2808;51.240;6.794;2023-03-14T06:49:13;2.20;;;0.73;;
5569;SDS011;2808;51.240;6.794;2023-03-14T06:51:41;2.90;;;0.87;;
5569;SDS011;2808;51.240;6.794;2023-03-14T06:54:15;2.27;;;0.90;;
5569;SDS011;2808;51.240;6.794;2023-03-14T06:56:43;5.67;;;0.73;;
5569;SDS011;2808;51.240;6.794;2023-03-14T06:59:12;2.73;;;0.83;;
5569;SDS011;2808;51.240;6.794;2023-03-14T07:01:40;2.47;;;0.80;;
5569;SDS011;2808;51.240;6.794;2023-03-14T07:04:08;2.73;;;0.90;;
5569;SDS011;2808;51.240;6.794;2023-03-14T07:06:39;1.90;;;0.80;;
5569;SDS011;2808;51.240;6.794;2023-03-14T07:09:09;3.03;;;0.80;;
5569;SDS011;2808;51.240;6.794;2023-03-14T07:11:39;2.27;;;0.80;;
5569;SDS011;2808;51.240;6.794;2023-03-14T07:17:43;2.20;;;0.87;;
5569;SDS011;2808;51.240;6.794;2023-03-14T07:20:13;2.30;;;0.80;;
5569;SDS011;2808;51.240;6.794;2023-03-14T07:22:41;4.37;;;0.87;;
5569;SDS011;2808;51.240;6.794;2023-03-14T07:25:13;3.80;;;0.90;;
5569;SDS011;2808;51.240;6.794;2023-03-14T07:27:42;3.20;;;0.80;;
5569;SDS011;2808;51.240;6.794;2023-03-14T07:30:11;2.40;;;0.80;;
5569;SDS011;2808;51.240;6.794;2023-03-14T07:33:00;2.87;;;0.90;;
5569;SDS011;2808;51.240;6.794;2023-03-14T07:35:30;2.10;;;0.90;;
5569;SDS011;2808;51.240;6.794;2023-03-14T07:38:05;4.40;;;1.10;;
5569;SDS011;2808;51.240;6.794;2023-03-14T07:40:41;3.17;;;1.00;;
5569;SDS011;2808;51.240;6.794;2023-03-14T07:43:08;1.80;;;0.77;;
5569;SDS011;2808;51.240;6.794;2023-03-14T07:45:36;2.00;;;0.90;;
5569;SDS011;2808;51.240;6.794;2023-03-14T07:48:05;2.40;;;0.80;;
5569;SDS011;2808;51.240;6.794;2023-03-14T07:50:40;3.60;;;0.90;;
5569;SDS011;2808;51.240;6.794;2023-03-14T07:53:07;2.60;;;1.00;;
5569;SDS011;2808;51.240;6.794;2023-03-14T07:55:35;2.53;;;0.90;;
5569;SDS011;2808;51.240;6.794;2023-03-14T07:58:06;5.00;;;0.90;;
5569;SDS011;2808;51.240;6.794;2023-03-14T08:00:33;3.33;;;1.30;;
5569;SDS011;2808;51.240;6.794;2023-03-14T08:03:01;2.00;;;0.80;;
5569;SDS011;2808;51.240;6.794;2023-03-14T08:05:30;4.20;;;0.90;;
5569;SDS011;2808;51.240;6.794;2023-03-14T08:08:01;3.13;;;1.30;;
5569;SDS011;2808;51.240;6.794;2023-03-14T08:10:28;2.93;;;0.90;;
5569;SDS011;2808;51.240;6.794;2023-03-14T08:12:57;3.00;;;1.10;;
5569;SDS011;2808;51.240;6.794;2023-03-14T08:15:28;5.17;;;0.90;;
5569;SDS011;2808;51.240;6.794;2023-03-14T08:18:09;2.83;;;1.10;;
5569;SDS011;2808;51.240;6.794;2023-03-14T08:20:38;3.27;;;1.40;;
5569;SDS011;2808;51.240;6.794;2023-03-14T08:23:08;2.47;;;1.10;;
5569;SDS011;2808;51.240;6.794;2023-03-14T08:25:40;4.43;;;1.00;;
5569;SDS011;2808;51.240;6.794;2023-03-14T08:28:20;2.73;;;1.10;;
5569;SDS011;2808;51.240;6.794;2023-03-14T08:30:48;2.73;;;1.20;;
5569;SDS011;2808;51.240;6.794;2023-03-14T08:33:16;3.10;;;0.90;;
5569;SDS011;2808;51.240;6.794;2023-03-14T08:35:47;5.43;;;1.03;;
5569;SDS011;2808;51.240;6.794;2023-03-14T08:38:18;2.80;;;0.97;;
5569;SDS011;2808;51.240;6.794;2023-03-14T08:40:45;2.20;;;1.10;;
5569;SDS011;2808;51.240;6.794;2023-03-14T08:43:14;4.70;;;1.10;;
5569;SDS011;2808;51.240;6.794;2023-03-14T08:45:41;3.17;;;1.20;;
5569;SDS011;2808;51.240;6.794;2023-03-14T08:48:09;4.63;;;1.20;;
5569;SDS011;2808;51.240;6.794;2023-03-14T08:50:36;3.50;;;1.63;;
5569;SDS011;2808;51.240;6.794;2023-03-14T08:53:05;2.60;;;1.00;;
5569;SDS011;2808;51.240;6.794;2023-03-14T08:55:33;2.40;;;1.00;;
5569;SDS011;2808;51.240;6.794;2023-03-14T08:58:05;4.83;;;1.40;;
5569;SDS011;2808;51.240;6.794;2023-03-14T09:00:34;5.60;;;1.60;;
5569;SDS011;2808;51.240;6.794;2023-03-14T09:03:04;7.80;;;1.30;;
5569;SDS011;2808;51.240;6.794;2023-03-14T09:05:32;8.53;;;1.50;;
5569;SDS011;2808;51.240;6.794;2023-03-14T09:08:02;5.73;;;1.30;;
5569;SDS011;2808;51.240;6.794;2023-03-14T09:10:33;3.60;;;1.40;;
5569;SDS011;2808;51.240;6.794;2023-03-14T09:13:00;7.57;;;2.10;;
5569;SDS011;2808;51.240;6.794;2023-03-14T09:15:31;5.47;;;1.70;;
5569;SDS011;2808;51.240;6.794;2023-03-14T09:17:58;3.10;;;1.50;;
5569;SDS011;2808;51.240;6.794;2023-03-14T09:20:26;5.47;;;1.80;;
5569;SDS011;2808;51.240;6.794;2023-03-14T09:22:53;8.97;;;1.80;;
5569;SDS011;2808;51.240;6.794;2023-03-14T09:25:21;2.80;;;1.17;;
5569;SDS011;2808;51.240;6.794;2023-03-14T09:27:49;3.47;;;1.00;;
5569;SDS011;2808;51.240;6.794;2023-03-14T09:30:26;2.30;;;1.00;;
5569;SDS011;2808;51.240;6.794;2023-03-14T09:32:53;2.87;;;1.30;;
5569;SDS011;2808;51.240;6.794;2023-03-14T09:35:22;5.00;;;1.30;;
5569;SDS011;2808;51.240;6.794;2023-03-14T09:37:49;1.80;;;0.70;;
5569;SDS011;2808;51.240;6.794;2023-03-14T09:40:17;2.67;;;1.00;;
5569;SDS011;2808;51.240;6.794;2023-03-14T09:42:46;3.73;;;1.30;;
5569;SDS011;2808;51.240;6.794;2023-03-14T09:45:18;4.83;;;1.10;;
5569;SDS011;2808;51.240;6.794;2023-03-14T09:47:51;8.73;;;1.73;;
5569;SDS011;2808;51.240;6.794;2023-03-14T09:50:19;2.40;;;0.90;;
5569;SDS011;2808;51.240;6.794;2023-03-14T09:52:48;3.73;;;1.10;;
5569;SDS011;2808;51.240;6.794;2023-03-14T09:55:22;4.93;;;0.97;;
5569;SDS011;2808;51.240;6.794;2023-03-14T09:57:54;9.80;;;1.60;;
5569;SDS011;2808;51.240;6.794;2023-03-14T10:00:26;10.40;;;1.07;;
5569;SDS011;2808;51.240;6.794;2023-03-14T10:02:57;2.87;;;1.10;;
5569;SDS011;2808;51.240;6.794;2023-03-14T10:05:42;5.73;;;1.23;;
5569;SDS011;2808;51.240;6.794;2023-03-14T10:08:10;2.53;;;1.17;;
5569;SDS011;2808;51.240;6.794;2023-03-14T10:10:38;3.03;;;1.20;;
5569;SDS011;2808;51.240;6.794;2023-03-14T10:13:13;3.10;;;1.47;;
5569;SDS011;2808;51.240;6.794;2023-03-14T10:15:48;9.40;;;1.20;;
5569;SDS011;2808;51.240;6.794;2023-03-14T10:18:19;3.00;;;1.50;;
5569;SDS011;2808;51.240;6.794;2023-03-14T10:20:49;5.90;;;1.00;;
5569;SDS011;2808;51.240;6.794;2023-03-14T10:23:28;4.37;;;1.10;;
5569;SDS011;2808;51.240;6.794;2023-03-14T10:26:03;5.60;;;1.20;;
5569;SDS011;2808;51.240;6.794;2023-03-14T10:28:39;3.10;;;1.20;;
5569;SDS011;2808;51.240;6.794;2023-03-14T10:31:10;3.13;;;1.20;;
5569;SDS011;2808;51.240;6.794;2023-03-14T10:33:38;3.40;;;1.40;;
5569;SDS011;2808;51.240;6.794;2023-03-14T10:36:14;2.93;;;1.20;;
5569;SDS011;2808;51.240;6.794;2023-03-14T10:38:45;5.43;;;1.47;;
5569;SDS011;2808;51.240;6.794;2023-03-14T10:41:14;3.80;;;1.00;;
5569;SDS011;2808;51.240;6.794;2023-03-14T10:43:46;3.50;;;1.00;;
5569;SDS011;2808;51.240;6.794;2023-03-14T10:46:18;3.87;;;1.20;;
5569;SDS011;2808;51.240;6.794;2023-03-14T10:48:46;2.57;;;1.10;;
5569;SDS011;2808;51.240;6.794;2023-03-14T10:51:18;3.33;;;1.53;;
5569;SDS011;2808;51.240;6.794;2023-03-14T10:53:55;3.37;;;1.40;;
5569;SDS011;2808;51.240;6.794;2023-03-14T10:56:32;4.67;;;1.37;;
5569;SDS011;2808;51.240;6.794;2023-03-14T10:59:11;5.47;;;1.40;;
5569;SDS011;2808;51.240;6.794;2023-03-14T11:01:41;4.50;;;1.40;;
5569;SDS011;2808;51.240;6.794;2023-03-14T11:04:21;3.57;;;1.33;;
5569;SDS011;2808;51.240;6.794;2023-03-14T11:07:10;10.50;;;1.47;;
5569;SDS011;2808;51.240;6.794;2023-03-14T11:09:44;5.63;;;1.40;;
5569;SDS011;2808;51.240;6.794;2023-03-14T11:12:24;4.57;;;1.43;;
5569;SDS011;2808;51.240;6.794;2023-03-14T11:15:04;4.73;;;1.63;;
5569;SDS011;2808;51.240;6.794;2023-03-14T11:17:38;5.30;;;1.43;;
5569;SDS011;2808;51.240;6.794;2023-03-14T11:20:17;18.97;;;1.87;;
5569;SDS011;2808;51.240;6.794;2023-03-14T11:22:59;6.00;;;2.00;;
5569;SDS011;2808;51.240;6.794;2023-03-14T11:25:36;6.60;;;1.40;;
5569;SDS011;2808;51.240;6.794;2023-03-14T11:28:15;5.40;;;1.50;;
5569;SDS011;2808;51.240;6.794;2023-03-14T11:30:51;4.00;;;1.30;;
5569;SDS011;2808;51.240;6.794;2023-03-14T11:33:22;5.80;;;1.50;;
5569;SDS011;2808;51.240;6.794;2023-03-14T11:35:58;4.17;;;1.90;;
5569;SDS011;2808;51.240;6.794;2023-03-14T11:38:33;3.67;;;1.40;;
5569;SDS011;2808;51.240;6.794;2023-03-14T11:41:04;4.93;;;1.40;;
5569;SDS011;2808;51.240;6.794;2023-03-14T11:43:38;4.83;;;1.20;;
5569;SDS011;2808;51.240;6.794;2023-03-14T11:46:09;4.33;;;1.70;;
5569;SDS011;2808;51.240;6.794;2023-03-14T11:48:41;4.80;;;1.57;;
5569;SDS011;2808;51.240;6.794;2023-03-14T11:51:17;4.13;;;1.50;;
5569;SDS011;2808;51.240;6.794;2023-03-14T11:53:55;3.80;;;1.23;;
5569;SDS011;2808;51.240;6.794;2023-03-14T11:56:29;3.83;;;1.30;;
5569;SDS011;2808;51.240;6.794;2023-03-14T11:59:02;3.50;;;1.20;;
5569;SDS011;2808;51.240;6.794;2023-03-14T12:01:40;4.63;;;1.20;;
5569;SDS011;2808;51.240;6.794;2023-03-14T12:04:18;7.70;;;1.50;;
5569;SDS011;2808;51.240;6.794;2023-03-14T12:07:03;3.90;;;1.10;;
5569;SDS011;2808;51.240;6.794;2023-03-14T12:09:39;2.80;;;1.03;;
5569;SDS011;2808;51.240;6.794;2023-03-14T12:12:13;4.33;;;1.30;;
5569;SDS011;2808;51.240;6.794;2023-03-14T12:14:59;5.70;;;1.10;;
5569;SDS011;2808;51.240;6.794;2023-03-14T12:17:35;11.30;;;1.67;;
5569;SDS011;2808;51.240;6.794;2023-03-14T12:20:12;9.57;;;1.63;;
5569;SDS011;2808;51.240;6.794;2023-03-14T12:22:46;13.80;;;1.83;;
5569;SDS011;2808;51.240;6.794;2023-03-14T12:25:17;12.70;;;1.33;;
5569;SDS011;2808;51.240;6.794;2023-03-14T12:27:48;6.93;;;1.57;;
5569;SDS011;2808;51.240;6.794;2023-03-14T12:30:40;6.40;;;1.70;;
5569;SDS011;2808;51.240;6.794;2023-03-14T12:33:25;5.00;;;1.37;;
5569;SDS011;2808;51.240;6.794;2023-03-14T12:35:57;6.83;;;2.40;;
5569;SDS011;2808;51.240;6.794;2023-03-14T12:38:29;10.83;;;2.00;;
5569;SDS011;2808;51.240;6.794;2023-03-14T12:41:11;7.10;;;1.30;;
5569;SDS011;2808;51.240;6.794;2023-03-14T12:43:44;10.00;;;1.70;;
5569;SDS011;2808;51.240;6.794;2023-03-14T12:46:15;11.97;;;2.80;;
5569;SDS011;2808;51.240;6.794;2023-03-14T12:48:55;11.23;;;2.40;;
5569;SDS011;2808;51.240;6.794;2023-03-14T12:51:34;6.40;;;1.50;;
5569;SDS011;2808;51.240;6.794;2023-03-14T12:54:17;11.70;;;2.10;;
5569;SDS011;2808;51.240;6.794;2023-03-14T12:57:03;14.57;;;1.97;;
5569;SDS011;2808;51.240;6.794;2023-03-14T12:59:55;7.57;;;1.70;;
5569;SDS011;2808;51.240;6.794;2023-03-14T13:02:36;9.57;;;2.00;;
5569;SDS011;2808;51.240;6.794;2023-03-14T13:05:14;8.17;;;1.60;;
5569;SDS011;2808;51.240;6.794;2023-03-14T13:08:05;9.97;;;1.80;;
5569;SDS011;2808;51.240;6.794;2023-03-14T13:10:54;14.13;;;2.90;;
5569;SDS011;2808;51.240;6.794;2023-03-14T13:13:34;7.47;;;1.70;;
5569;SDS011;2808;51.240;6.794;2023-03-14T13:16:12;16.10;;;2.70;;
5569;SDS011;2808;51.240;6.794;2023-03-14T13:18:44;18.57;;;3.00;;
5569;SDS011;2808;51.240;6.794;2023-03-14T13:21:21;17.03;;;2.37;;
5569;SDS011;2808;51.240;6.794;2023-03-14T13:23:56;9.33;;;3.13;;
5569;SDS011;2808;51.240;6.794;2023-03-14T13:26:26;13.27;;;2.50;;
5569;SDS011;2808;51.240;6.794;2023-03-14T13:29:15;15.63;;;2.50;;
5569;SDS011;2808;51.240;6.794;2023-03-14T13:31:46;21.80;;;3.37;;
5569;SDS011;2808;51.240;6.794;2023-03-14T13:34:18;10.73;;;2.20;;
5569;SDS011;2808;51.240;6.794;2023-03-14T13:36:57;15.83;;;2.00;;
5569;SDS011;2808;51.240;6.794;2023-03-14T13:39:25;12.17;;;2.80;;
5569;SDS011;2808;51.240;6.794;2023-03-14T13:41:55;14.27;;;2.67;;
5569;SDS011;2808;51.240;6.794;2023-03-14T13:44:29;11.60;;;2.77;;
5569;SDS011;2808;51.240;6.794;2023-03-14T13:46:58;19.50;;;3.80;;
5569;SDS011;2808;51.240;6.794;2023-03-14T13:49:37;19.13;;;2.70;;
5569;SDS011;2808;51.240;6.794;2023-03-14T14:05:25;15.13;;;2.57;;
5569;SDS011;2808;51.240;6.794;2023-03-14T14:07:58;11.80;;;2.40;;
5569;SDS011;2808;51.240;6.794;2023-03-14T14:10:30;13.53;;;3.40;;
5569;SDS011;2808;51.240;6.794;2023-03-14T14:13:01;23.63;;;3.30;;
5569;SDS011;2808;51.240;6.794;2023-03-14T14:18:46;20.93;;;3.07;;
5569;SDS011;2808;51.240;6.794;2023-03-14T14:21:22;21.70;;;2.80;;
5569;SDS011;2808;51.240;6.794;2023-03-14T14:23:59;20.47;;;2.50;;
5569;SDS011;2808;51.240;6.794;2023-03-14T14:26:33;19.73;;;3.17;;
5569;SDS011;2808;51.240;6.794;2023-03-14T14:29:05;24.40;;;3.30;;
5569;SDS011;2808;51.240;6.794;2023-03-14T14:31:47;12.70;;;3.10;;
5569;SDS011;2808;51.240;6.794;2023-03-14T14:34:27;24.33;;;4.07;;
5569;SDS011;2808;51.240;6.794;2023-03-14T14:36:56;22.97;;;3.60;;
5569;SDS011;2808;51.240;6.794;2023-03-14T14:39:24;12.80;;;2.70;;
5569;SDS011;2808;51.240;6.794;2023-03-14T14:41:53;17.17;;;3.73;;
5569;SDS011;2808;51.240;6.794;2023-03-14T14:44:28;26.23;;;3.70;;
5569;SDS011;2808;51.240;6.794;2023-03-14T14:46:58;18.53;;;2.80;;
5569;SDS011;2808;51.240;6.794;2023-03-14T14:49:29;13.23;;;2.30;;
5569;SDS011;2808;51.240;6.794;2023-03-14T14:52:02;19.60;;;2.20;;
5569;SDS011;2808;51.240;6.794;2023-03-14T14:54:34;14.97;;;2.40;;
5569;SDS011;2808;51.240;6.794;2023-03-14T14:57:05;13.40;;;2.00;;
5569;SDS011;2808;51.240;6.794;2023-03-14T14:59:43;11.67;;;2.70;;
5569;SDS011;2808;51.240;6.794;2023-03-14T15:02:23;12.00;;;2.00;;
5569;SDS011;2808;51.240;6.794;2023-03-14T15:04:59;12.53;;;2.23;;
5569;SDS011;2808;51.240;6.794;2023-03-14T15:07:40;12.20;;;2.20;;
5569;SDS011;2808;51.240;6.794;2023-03-14T15:10:10;9.00;;;1.87;;
5569;SDS011;2808;51.240;6.794;2023-03-14T15:12:42;17.13;;;2.50;;
5569;SDS011;2808;51.240;6.794;2023-03-14T15:15:10;11.40;;;2.00;;
5569;SDS011;2808;51.240;6.794;2023-03-14T15:17:38;10.93;;;1.97;;
5569;SDS011;2808;51.240;6.794;2023-03-14T15:20:09;16.63;;;2.63;;
5569;SDS011;2808;51.240;6.794;2023-03-14T15:22:40;13.13;;;2.30;;
5569;SDS011;2808;51.240;6.794;2023-03-14T15:25:09;12.50;;;1.90;;
5569;SDS011;2808;51.240;6.794;2023-03-14T15:27:38;7.53;;;1.73;;
5569;SDS011;2808;51.240;6.794;2023-03-14T15:30:09;10.80;;;2.23;;
5569;SDS011;2808;51.240;6.794;2023-03-14T15:32:42;18.20;;;1.93;;
5569;SDS011;2808;51.240;6.794;2023-03-14T15:35:11;18.30;;;2.37;;
5569;SDS011;2808;51.240;6.794;2023-03-14T15:37:41;9.57;;;1.90;;
5569;SDS011;2808;51.240;6.794;2023-03-14T15:40:10;13.50;;;2.23;;
5569;SDS011;2808;51.240;6.794;2023-03-14T15:42:39;8.03;;;1.80;;
5569;SDS011;2808;51.240;6.794;2023-03-14T15:45:07;18.87;;;2.73;;
5569;SDS011;2808;51.240;6.794;2023-03-14T15:47:35;11.97;;;2.00;;
5569;SDS011;2808;51.240;6.794;2023-03-14T15:50:03;11.87;;;2.33;;
5569;SDS011;2808;51.240;6.794;2023-03-14T15:52:34;10.13;;;2.17;;